Time;durP1;ratioP1;P1;durP2;ratioP2;P2;SDS_P1;SDS_P2;PMS_P1;PMS_P2;Temp;Humidity;BMP_temperature;BMP_pressure;BME280_temperature;BME280_humidity;BME280_pressure;Samples;Min_cycle;Max_cycle;Signal;HPM_P1;HPM_P2
2022/02/19 00:02:13;;;;;;;3.73;1.73;;;6.50;99.90;;;;;;5053820;28;20233;-68
2022/02/19 00:04:39;;;;;;;3.93;2.10;;;6.40;99.90;;;;;;5055772;28;20166;-68
2022/02/19 00:07:05;;;;;;;5.40;2.47;;;6.30;99.90;;;;;;5056161;28;20206;-69
2022/02/19 00:09:32;;;;;;;4.00;2.37;;;6.30;99.90;;;;;;5056907;28;20170;-69
2022/02/19 00:11:57;;;;;;;11.23;2.30;;;6.30;99.90;;;;;;5056201;28;20456;-68
2022/02/19 00:14:23;;;;;;;6.27;2.27;;;6.30;99.90;;;;;;5037922;28;20521;-68
2022/02/19 00:16:49;;;;;;;6.37;2.17;;;6.40;99.90;;;;;;5056036;28;20572;-68
2022/02/19 00:19:14;;;;;;;6.57;1.90;;;6.40;99.90;;;;;;5056115;28;20417;-68
2022/02/19 00:21:40;;;;;;;6.17;2.10;;;6.40;99.90;;;;;;5038188;28;20182;-68
2022/02/19 00:24:07;;;;;;;4.87;2.07;;;6.40;99.90;;;;;;5056090;28;20202;-69
2022/02/19 00:26:33;;;;;;;7.33;1.90;;;6.30;99.90;;;;;;5037674;28;20465;-68
2022/02/19 00:28:58;;;;;;;10.03;2.03;;;6.30;99.90;;;;;;5056128;28;20496;-68
2022/02/19 00:31:24;;;;;;;7.33;2.10;;;6.30;99.90;;;;;;5056220;28;20186;-69
2022/02/19 00:33:49;;;;;;;4.07;1.70;;;6.40;99.90;;;;;;5055940;28;20581;-68
2022/02/19 00:36:15;;;;;;;5.03;2.13;;;6.30;99.80;;;;;;5055621;28;20201;-69
2022/02/19 00:38:40;;;;;;;9.83;2.10;;;6.40;99.90;;;;;;5055163;28;20178;-69
2022/02/19 00:41:06;;;;;;;3.93;2.53;;;6.40;99.90;;;;;;5056728;28;20166;-69
2022/02/19 00:43:31;;;;;;;3.40;1.73;;;6.40;99.70;;;;;;5055606;28;20297;-67
2022/02/19 00:45:57;;;;;;;3.13;1.40;;;6.40;99.90;;;;;;5055514;28;20205;-69
2022/02/19 00:48:23;;;;;;;4.50;1.93;;;6.40;99.90;;;;;;5055041;28;20252;-68
2022/02/19 00:50:49;;;;;;;9.70;3.60;;;6.20;99.90;;;;;;5055055;28;20216;-68
2022/02/19 00:53:15;;;;;;;4.37;2.03;;;6.20;99.90;;;;;;5054567;28;20849;-68
2022/02/19 00:55:41;;;;;;;8.23;2.33;;;6.30;99.80;;;;;;5054646;28;20538;-68
2022/02/19 00:58:07;;;;;;;6.10;2.20;;;6.40;99.00;;;;;;5054877;28;20494;-69
2022/02/19 01:00:33;;;;;;;3.47;1.90;;;6.40;98.50;;;;;;5054631;28;20409;-68
2022/02/19 01:02:58;;;;;;;4.50;1.90;;;6.50;98.70;;;;;;5054157;28;20174;-68
2022/02/19 01:05:24;;;;;;;7.70;1.77;;;6.50;98.90;;;;;;5054415;28;20448;-68
2022/02/19 01:07:49;;;;;;;3.43;1.70;;;6.50;99.60;;;;;;5054610;28;20252;-68
2022/02/19 01:10:15;;;;;;;4.47;1.90;;;6.50;99.90;;;;;;5054783;28;20186;-68
2022/02/19 01:12:40;;;;;;;9.57;2.50;;;6.60;99.90;;;;;;5054144;28;20537;-68
2022/02/19 01:15:07;;;;;;;9.43;2.57;;;6.60;99.90;;;;;;5054217;28;20340;-69
2022/02/19 01:17:33;;;;;;;8.27;2.37;;;6.60;99.90;;;;;;5054420;28;20171;-67
2022/02/19 01:19:58;;;;;;;9.20;2.50;;;6.60;99.90;;;;;;5036546;28;20417;-69
2022/02/19 01:22:24;;;;;;;7.30;2.63;;;6.60;99.90;;;;;;5054089;28;20408;-68
2022/02/19 01:24:49;;;;;;;7.73;2.20;;;6.60;99.90;;;;;;5054094;28;20171;-68
2022/02/19 01:27:15;;;;;;;6.03;2.23;;;6.60;99.90;;;;;;5036019;28;20175;-69
2022/02/19 01:29:40;;;;;;;4.53;1.97;;;6.60;99.90;;;;;;5036298;28;20170;-70
2022/02/19 01:32:06;;;;;;;7.73;2.20;;;6.50;99.90;;;;;;5053828;28;20197;-68
2022/02/19 01:34:32;;;;;;;6.17;2.57;;;6.40;99.90;;;;;;5054185;28;20227;-69
2022/02/19 01:36:57;;;;;;;5.90;2.17;;;6.50;99.90;;;;;;5053570;28;20455;-68
2022/02/19 01:39:23;;;;;;;8.33;2.23;;;6.50;99.90;;;;;;5054152;28;20534;-67
2022/02/19 01:41:48;;;;;;;6.27;2.47;;;6.50;99.90;;;;;;5053694;28;20566;-69
2022/02/19 01:44:14;;;;;;;8.30;2.70;;;6.50;99.90;;;;;;5053595;28;20250;-68
2022/02/19 01:46:40;;;;;;;10.67;2.50;;;6.40;99.90;;;;;;5053560;28;20190;-69
2022/02/19 01:49:07;;;;;;;4.07;1.80;;;6.40;99.90;;;;;;5053386;28;20416;-69
2022/02/19 01:51:34;;;;;;;10.17;2.50;;;6.50;99.90;;;;;;5053454;28;20409;-67
2022/02/19 01:54:05;;;;;;;7.83;2.73;;;6.50;99.90;;;;;;5053355;28;20417;-69
2022/02/19 01:56:32;;;;;;;7.40;2.10;;;6.40;99.90;;;;;;5053339;28;20464;-70
2022/02/19 01:58:59;;;;;;;12.03;2.60;;;6.20;99.90;;;;;;5053306;28;20495;-69
2022/02/19 02:01:24;;;;;;;10.03;2.83;;;6.10;99.90;;;;;;5053244;28;20783;-69
2022/02/19 02:03:50;;;;;;;9.10;2.67;;;6.20;99.90;;;;;;5052790;28;20508;-69
2022/02/19 02:06:17;;;;;;;8.43;2.10;;;6.20;99.90;;;;;;5053250;28;20679;-70
2022/02/19 02:08:43;;;;;;;3.30;2.10;;;6.30;99.90;;;;;;5071717;22;20218;-72
2022/02/19 02:11:09;;;;;;;6.80;2.77;;;6.30;99.90;;;;;;5041850;28;20508;-72
2022/02/19 02:13:35;;;;;;;6.07;1.90;;;6.30;99.90;;;;;;5032737;28;20167;-72
2022/02/19 02:16:00;;;;;;;7.63;2.83;;;6.30;99.90;;;;;;5032921;28;20202;-72
2022/02/19 02:18:26;;;;;;;4.10;2.00;;;6.30;99.90;;;;;;5045970;28;20451;-72
2022/02/19 02:20:53;;;;;;;5.90;2.30;;;6.30;99.90;;;;;;5052859;28;20173;-72
2022/02/19 02:23:20;;;;;;;8.00;2.03;;;6.30;99.90;;;;;;5052545;28;20236;-72
2022/02/19 02:25:46;;;;;;;4.37;1.70;;;6.40;99.90;;;;;;5052010;28;20456;-72
2022/02/19 02:28:12;;;;;;;5.30;2.47;;;6.40;99.90;;;;;;5052576;28;20433;-72
2022/02/19 02:30:38;;;;;;;6.27;1.97;;;6.40;99.90;;;;;;5052556;28;20412;-72
2022/02/19 02:33:08;;;;;;;6.47;2.23;;;6.40;99.90;;;;;;5052083;28;20416;-72
2022/02/19 02:35:34;;;;;;;3.70;1.70;;;6.40;99.90;;;;;;5051705;28;20484;-72
2022/02/19 02:38:00;;;;;;;6.17;2.10;;;6.40;99.20;;;;;;5052377;28;20417;-72
2022/02/19 02:40:26;;;;;;;4.43;2.00;;;6.40;98.00;;;;;;5052089;28;20547;-72
2022/02/19 02:42:51;;;;;;;2.83;1.50;;;6.40;98.30;;;;;;5051970;28;20455;-72
2022/02/19 02:45:17;;;;;;;5.17;1.50;;;6.40;97.80;;;;;;5052227;28;20206;-72
2022/02/19 02:47:43;;;;;;;5.13;2.20;;;6.50;97.40;;;;;;5052245;28;20530;-71
2022/02/19 02:50:10;;;;;;;3.17;1.67;;;6.40;97.20;;;;;;5051861;28;20566;-72
2022/02/19 02:52:37;;;;;;;4.10;1.80;;;6.40;97.20;;;;;;5052028;28;20507;-72
2022/02/19 02:55:04;;;;;;;1.80;1.43;;;6.40;97.40;;;;;;5051818;28;20448;-72
2022/02/19 02:57:29;;;;;;;6.13;1.60;;;6.40;97.30;;;;;;5052020;28;20913;-72
2022/02/19 02:59:55;;;;;;;4.93;1.80;;;6.40;97.20;;;;;;5052092;28;20478;-72
2022/02/19 03:02:20;;;;;;;3.00;1.50;;;6.40;97.20;;;;;;5051634;28;20228;-72
2022/02/19 03:04:46;;;;;;;3.50;1.57;;;6.30;97.30;;;;;;5051404;28;20178;-72
2022/02/19 03:07:11;;;;;;;3.70;1.73;;;6.40;97.40;;;;;;5051908;28;20167;-71
2022/02/19 03:09:37;;;;;;;5.73;1.87;;;6.30;97.50;;;;;;5051745;28;20237;-72
2022/02/19 03:12:02;;;;;;;5.23;2.03;;;6.30;97.70;;;;;;5051549;28;20162;-72
2022/02/19 03:14:28;;;;;;;5.30;1.80;;;6.40;97.80;;;;;;5051611;28;20181;-72
2022/02/19 03:16:54;;;;;;;7.03;1.70;;;6.40;97.90;;;;;;5051620;28;20233;-72
2022/02/19 03:19:19;;;;;;;5.83;1.57;;;6.40;98.20;;;;;;5052128;28;20190;-72
2022/02/19 03:21:45;;;;;;;4.43;2.10;;;6.50;97.90;;;;;;5050968;28;20212;-72
2022/02/19 03:24:10;;;;;;;2.80;1.37;;;6.40;98.20;;;;;;5051658;28;20162;-72
2022/02/19 03:26:36;;;;;;;4.47;1.77;;;6.40;98.30;;;;;;5050773;28;20179;-72
2022/02/19 03:29:01;;;;;;;2.50;1.50;;;6.30;98.20;;;;;;5033547;28;20573;-72
2022/02/19 03:31:27;;;;;;;3.10;1.60;;;6.30;98.20;;;;;;5051442;28;20178;-72
2022/02/19 03:33:52;;;;;;;3.93;1.70;;;6.40;98.30;;;;;;5043035;28;20206;-73
2022/02/19 03:36:18;;;;;;;4.60;1.90;;;6.30;98.60;;;;;;5049402;28;20221;-73
2022/02/19 03:38:43;;;;;;;6.40;1.80;;;6.20;99.90;;;;;;5049347;28;20284;-73
2022/02/19 03:41:09;;;;;;;5.73;1.87;;;6.20;99.90;;;;;;5043554;28;20736;-73
2022/02/19 03:43:35;;;;;;;2.90;1.37;;;6.00;99.90;;;;;;5050006;28;20238;-74
2022/02/19 03:46:01;;;;;;;1.97;1.50;;;5.90;99.90;;;;;;5050310;28;20206;-73
2022/02/19 03:48:27;;;;;;;3.37;1.80;;;5.90;99.90;;;;;;5049610;28;20552;-72
2022/02/19 03:50:52;;;;;;;4.57;2.00;;;5.90;99.90;;;;;;5050442;28;20207;-73
2022/02/19 03:53:18;;;;;;;5.03;2.27;;;6.00;99.90;;;;;;5050191;28;20248;-73
2022/02/19 03:55:43;;;;;;;2.40;1.70;;;5.90;99.90;;;;;;5050050;28;20202;-72
2022/02/19 03:58:09;;;;;;;13.73;2.10;;;5.90;99.90;;;;;;5051147;28;20229;-73
2022/02/19 04:00:35;;;;;;;5.03;1.43;;;6.00;99.90;;;;;;5051393;28;20647;-73
2022/02/19 04:03:01;;;;;;;2.87;1.97;;;6.10;99.90;;;;;;5051218;28;20174;-73
2022/02/19 04:05:26;;;;;;;3.33;1.60;;;6.10;99.90;;;;;;5051446;28;20440;-74
2022/02/19 04:07:52;;;;;;;5.00;1.63;;;6.10;99.90;;;;;;5051410;28;20251;-73
2022/02/19 04:10:17;;;;;;;3.73;1.43;;;6.20;99.90;;;;;;5051513;28;20170;-73
2022/02/19 04:12:43;;;;;;;3.13;1.90;;;6.30;99.90;;;;;;5050585;28;20179;-73
2022/02/19 04:15:09;;;;;;;5.73;2.03;;;6.20;99.90;;;;;;5034385;28;20277;-73
2022/02/19 04:17:35;;;;;;;4.10;1.70;;;6.10;99.90;;;;;;5051326;28;20205;-73
2022/02/19 04:20:00;;;;;;;3.87;2.80;;;6.20;99.90;;;;;;5051129;28;20464;-73
2022/02/19 04:22:26;;;;;;;3.03;1.60;;;6.20;99.90;;;;;;5050945;28;20170;-73
2022/02/19 04:24:52;;;;;;;6.60;2.37;;;6.30;99.90;;;;;;5051367;28;20158;-73
2022/02/19 04:27:19;;;;;;;5.20;1.50;;;6.30;99.90;;;;;;5051013;28;20266;-73
2022/02/19 04:29:45;;;;;;;3.23;1.60;;;6.40;99.90;;;;;;5050803;28;20439;-74
2022/02/19 04:32:11;;;;;;;2.90;2.03;;;6.40;99.90;;;;;;5050923;28;20416;-73
2022/02/19 04:34:37;;;;;;;2.43;1.70;;;6.40;99.90;;;;;;5051461;28;20404;-72
2022/02/19 04:37:03;;;;;;;5.97;1.90;;;6.40;99.90;;;;;;5051191;28;20216;-73
2022/02/19 04:39:29;;;;;;;5.17;1.97;;;6.50;99.90;;;;;;5050458;28;20424;-73
2022/02/19 04:41:54;;;;;;;3.77;1.53;;;6.50;99.90;;;;;;5050705;28;20416;-73
2022/02/19 04:44:20;;;;;;;5.73;1.90;;;6.50;99.90;;;;;;5050902;28;20539;-73
2022/02/19 04:46:45;;;;;;;5.17;1.57;;;6.40;99.90;;;;;;5049929;28;20800;-73
2022/02/19 04:49:11;;;;;;;3.50;1.73;;;6.40;99.90;;;;;;5054681;28;20209;-73
2022/02/19 04:51:37;;;;;;;4.83;1.93;;;6.30;99.90;;;;;;5054507;28;20174;-74
2022/02/19 04:54:03;;;;;;;4.07;1.43;;;6.30;99.90;;;;;;5054215;28;20257;-72
2022/02/19 04:56:29;;;;;;;4.50;1.60;;;6.40;99.90;;;;;;5054562;28;20543;-72
2022/02/19 04:58:55;;;;;;;3.53;1.20;;;6.40;99.90;;;;;;5054689;28;20225;-72
2022/02/19 05:01:20;;;;;;;5.20;1.57;;;6.40;99.90;;;;;;5054425;28;20193;-73
2022/02/19 05:03:46;;;;;;;3.30;1.60;;;6.40;99.90;;;;;;5054001;28;20163;-72
2022/02/19 05:06:15;;;;;;;6.23;1.90;;;6.40;99.90;;;;;;5054237;28;20228;-72
2022/02/19 05:08:41;;;;;;;5.50;2.10;;;6.30;99.90;;;;;;5054356;28;20205;-73
2022/02/19 05:11:08;;;;;;;6.43;1.80;;;6.30;99.90;;;;;;5054351;28;20420;-72
2022/02/19 05:13:33;;;;;;;3.60;1.80;;;6.40;99.90;;;;;;5053969;28;20416;-72
2022/02/19 05:15:59;;;;;;;3.43;2.07;;;6.30;99.90;;;;;;5053589;28;20461;-72
2022/02/19 05:18:24;;;;;;;3.00;1.43;;;6.20;99.90;;;;;;5054065;28;20212;-73
2022/02/19 05:20:50;;;;;;;4.87;1.60;;;6.20;99.90;;;;;;5054166;28;20174;-72
2022/02/19 05:23:16;;;;;;;4.07;1.53;;;6.20;99.90;;;;;;5053890;28;20191;-72
2022/02/19 05:25:41;;;;;;;1.93;1.30;;;6.10;99.90;;;;;;5053620;28;20267;-73
2022/02/19 05:28:07;;;;;;;6.23;1.70;;;6.10;99.90;;;;;;5053694;28;20428;-73
2022/02/19 05:30:34;;;;;;;4.60;2.20;;;6.20;99.90;;;;;;5053779;28;20273;-73
2022/02/19 05:33:00;;;;;;;4.10;2.07;;;6.10;99.90;;;;;;5053234;28;20409;-72
2022/02/19 05:35:25;;;;;;;3.50;2.00;;;6.10;99.90;;;;;;5053454;28;20804;-72
2022/02/19 05:37:51;;;;;;;5.83;1.80;;;6.20;99.90;;;;;;5053734;28;20550;-72
2022/02/19 05:40:16;;;;;;;5.33;2.07;;;6.20;99.90;;;;;;5054369;28;20167;-72
2022/02/19 05:42:42;;;;;;;6.73;2.00;;;6.10;99.90;;;;;;5053594;28;20280;-73
2022/02/19 05:45:08;;;;;;;4.60;1.70;;;6.10;99.90;;;;;;5054042;28;20182;-73
2022/02/19 05:47:33;;;;;;;2.90;1.60;;;6.10;99.90;;;;;;5053357;28;20550;-72
2022/02/19 05:49:59;;;;;;;3.77;1.70;;;6.10;99.90;;;;;;5053624;28;20420;-73
2022/02/19 05:52:25;;;;;;;8.80;1.90;;;6.10;99.90;;;;;;5053235;28;20182;-72
2022/02/19 05:54:54;;;;;;;6.40;2.37;;;6.10;99.90;;;;;;5053609;28;20174;-73
2022/02/19 05:57:20;;;;;;;3.97;1.30;;;6.10;99.90;;;;;;5035289;28;20201;-73
2022/02/19 05:59:46;;;;;;;7.40;1.63;;;5.80;99.90;;;;;;5052450;28;20838;-72
2022/02/19 06:02:12;;;;;;;4.53;1.70;;;5.90;99.90;;;;;;5053317;28;20771;-72
2022/02/19 06:04:37;;;;;;;4.67;1.70;;;5.90;99.90;;;;;;5053377;28;20432;-72
2022/02/19 06:07:03;;;;;;;6.20;2.67;;;6.00;99.90;;;;;;5053080;28;20177;-72
2022/02/19 06:09:29;;;;;;;4.57;1.97;;;6.00;99.90;;;;;;5052669;28;20213;-71
2022/02/19 06:11:54;;;;;;;8.40;2.20;;;6.10;99.90;;;;;;5053065;28;20885;-72
2022/02/19 06:14:20;;;;;;;7.57;1.90;;;6.10;99.90;;;;;;5053213;28;20196;-72
2022/02/19 06:16:46;;;;;;;5.67;2.00;;;6.10;99.90;;;;;;5053112;28;20208;-71
2022/02/19 06:19:11;;;;;;;5.60;1.90;;;6.10;99.90;;;;;;5053030;28;20281;-72
2022/02/19 06:21:37;;;;;;;5.27;2.80;;;6.10;99.90;;;;;;5053030;28;20245;-72
2022/02/19 06:24:03;;;;;;;5.30;2.00;;;6.00;99.90;;;;;;5052612;28;20174;-73
2022/02/19 06:26:28;;;;;;;4.83;2.03;;;6.00;99.90;;;;;;5034716;28;20186;-72
2022/02/19 06:28:54;;;;;;;2.70;1.20;;;5.90;99.90;;;;;;5053379;28;20197;-72
2022/02/19 06:31:19;;;;;;;5.60;1.70;;;6.00;99.90;;;;;;5052767;28;20220;-73
2022/02/19 06:33:45;;;;;;;5.00;1.67;;;5.90;99.90;;;;;;5052476;28;20261;-73
2022/02/19 06:36:10;;;;;;;6.40;2.03;;;6.00;99.90;;;;;;5052938;28;20202;-72
2022/02/19 06:38:39;;;;;;;7.97;2.57;;;6.00;99.90;;;;;;5052259;28;20198;-73
2022/02/19 06:41:06;;;;;;;8.30;2.83;;;5.90;99.90;;;;;;5052720;28;20173;-72
2022/02/19 06:43:32;;;;;;;8.70;2.47;;;5.90;99.90;;;;;;5051875;28;20446;-72
2022/02/19 06:45:57;;;;;;;4.47;1.80;;;5.90;99.90;;;;;;5034787;28;20884;-73
2022/02/19 06:48:23;;;;;;;4.53;1.83;;;5.80;99.90;;;;;;5051980;28;20216;-73
2022/02/19 06:50:48;;;;;;;10.53;1.70;;;5.90;99.90;;;;;;5034716;28;20242;-73
2022/02/19 06:53:14;;;;;;;3.90;1.97;;;5.80;99.90;;;;;;5052351;28;20174;-72
2022/02/19 06:55:39;;;;;;;6.90;2.00;;;5.70;99.90;;;;;;5049464;28;20191;-73
2022/02/19 06:58:05;;;;;;;6.47;2.00;;;5.70;99.90;;;;;;5052205;28;20200;-73
2022/02/19 07:00:30;;;;;;;5.17;1.60;;;5.70;99.90;;;;;;5051940;28;20182;-73
2022/02/19 07:02:56;;;;;;;4.80;1.90;;;5.60;99.90;;;;;;5051854;28;20276;-73
2022/02/19 07:05:22;;;;;;;6.73;2.30;;;5.70;99.90;;;;;;5050892;28;20654;-73
2022/02/19 07:07:47;;;;;;;7.17;2.83;;;5.80;99.90;;;;;;5052089;28;20201;-72
2022/02/19 07:10:13;;;;;;;8.43;2.63;;;5.70;99.90;;;;;;5046423;28;20296;-73
2022/02/19 07:12:38;;;;;;;7.73;2.27;;;5.70;99.90;;;;;;5051604;28;20170;-73
2022/02/19 07:15:10;;;;;;;3.53;1.90;;;5.80;99.90;;;;;;5051964;28;20681;-73
2022/02/19 07:17:47;;;;;;;6.73;2.10;;;5.90;99.90;;;;;;5051789;28;20147;-73
2022/02/19 07:20:13;;;;;;;7.83;2.10;;;5.80;99.90;;;;;;5051212;28;20452;-73
2022/02/19 07:22:39;;;;;;;6.40;2.00;;;5.90;99.90;;;;;;5051648;28;20442;-72
2022/02/19 07:25:05;;;;;;;4.03;2.03;;;5.80;99.90;;;;;;5051876;28;20417;-72
2022/02/19 07:27:38;;;;;;;5.50;2.43;;;5.80;99.90;;;;;;5052151;28;20545;-73
2022/02/19 07:30:06;;;;;;;9.07;1.83;;;5.80;99.90;;;;;;5047806;28;20194;-73
2022/02/19 07:32:31;;;;;;;5.90;2.03;;;5.70;99.90;;;;;;5052589;28;20461;-73
2022/02/19 07:34:58;;;;;;;6.30;2.13;;;5.80;99.90;;;;;;5043877;28;20439;-73
2022/02/19 07:37:24;;;;;;;6.67;2.57;;;5.70;99.90;;;;;;5052286;28;20188;-73
2022/02/19 07:39:49;;;;;;;3.07;2.03;;;5.80;99.90;;;;;;5051324;28;20433;-73
2022/02/19 07:42:15;;;;;;;5.77;2.10;;;5.90;99.90;;;;;;5051182;28;20185;-73
2022/02/19 07:44:40;;;;;;;8.60;2.23;;;5.90;99.90;;;;;;5052902;28;20777;-73
2022/02/19 07:47:06;;;;;;;7.43;2.30;;;5.90;99.90;;;;;;5052507;28;20204;-72
2022/02/19 08:00:38;;;;;;;8.90;2.37;;;5.90;99.90;;;;;;5051735;28;20423;-74
2022/02/19 08:03:04;;;;;;;4.50;1.97;;;5.90;99.90;;;;;;5050110;28;20413;-73
2022/02/19 08:05:29;;;;;;;5.13;2.77;;;5.80;99.90;;;;;;5033307;28;20257;-72
2022/02/19 08:07:55;;;;;;;5.00;2.10;;;5.70;99.90;;;;;;5046853;28;20666;-72
2022/02/19 08:10:20;;;;;;;5.27;2.53;;;5.80;99.90;;;;;;5030424;28;20619;-73
2022/02/19 08:12:46;;;;;;;5.50;3.43;;;5.90;99.90;;;;;;5030055;28;20607;-73
2022/02/19 08:15:11;;;;;;;6.03;2.33;;;5.90;99.90;;;;;;5045378;28;20672;-73
2022/02/19 08:17:37;;;;;;;7.80;2.60;;;6.00;99.90;;;;;;5049097;28;20190;-74
2022/02/19 08:20:03;;;;;;;8.13;3.33;;;5.90;99.90;;;;;;5049994;28;20305;-74
2022/02/19 08:22:29;;;;;;;9.50;2.57;;;6.00;99.90;;;;;;5051065;28;20190;-73
2022/02/19 08:24:54;;;;;;;5.60;2.13;;;6.10;99.90;;;;;;5052227;28;20462;-72
2022/02/19 08:27:20;;;;;;;8.80;3.27;;;6.20;99.90;;;;;;5054673;28;20190;-73
2022/02/19 08:29:45;;;;;;;7.30;2.00;;;6.30;99.90;;;;;;5053282;28;20206;-72
2022/02/19 08:32:11;;;;;;;5.23;1.87;;;6.30;99.90;;;;;;5051409;28;20221;-73
2022/02/19 08:34:36;;;;;;;4.10;2.20;;;6.40;99.90;;;;;;5054028;28;20194;-73
2022/02/19 08:37:02;;;;;;;6.47;2.10;;;6.50;99.90;;;;;;5053654;28;20262;-73
2022/02/19 08:39:27;;;;;;;4.77;1.97;;;6.50;99.90;;;;;;5048286;28;20205;-73
2022/02/19 08:41:53;;;;;;;7.37;2.40;;;6.40;99.90;;;;;;5052185;28;20226;-73
2022/02/19 08:44:19;;;;;;;5.40;2.30;;;6.40;99.90;;;;;;5051396;28;20286;-72
2022/02/19 08:46:45;;;;;;;5.20;1.97;;;6.30;99.90;;;;;;5052694;28;20283;-73
2022/02/19 08:49:10;;;;;;;5.33;1.80;;;6.40;99.90;;;;;;5053300;28;20812;-73
2022/02/19 08:51:36;;;;;;;7.63;2.03;;;6.60;99.90;;;;;;5053010;28;20683;-73
2022/02/19 08:54:01;;;;;;;4.40;1.60;;;6.50;99.90;;;;;;5052977;28;20284;-73
2022/02/19 08:56:27;;;;;;;7.80;1.93;;;6.30;99.90;;;;;;5052742;28;20268;-72
2022/02/19 08:58:52;;;;;;;9.73;3.30;;;6.20;99.90;;;;;;5050624;28;20339;-73
2022/02/19 09:01:18;;;;;;;5.30;2.63;;;6.30;99.90;;;;;;5034964;28;20702;-73
2022/02/19 09:03:43;;;;;;;3.23;2.27;;;6.40;99.90;;;;;;5052120;28;20248;-73
2022/02/19 09:06:09;;;;;;;7.83;2.60;;;6.40;99.90;;;;;;5052852;28;20679;-72
2022/02/19 09:08:34;;;;;;;4.83;1.70;;;6.40;99.90;;;;;;5053023;28;20232;-73
2022/02/19 09:11:00;;;;;;;13.67;5.40;;;6.40;99.90;;;;;;5052066;28;20225;-73
2022/02/19 09:13:26;;;;;;;7.40;2.00;;;6.50;99.90;;;;;;5051504;28;20206;-72
2022/02/19 09:15:51;;;;;;;6.40;2.00;;;6.60;99.90;;;;;;5052326;28;20284;-73
2022/02/19 09:18:17;;;;;;;9.53;2.33;;;6.70;99.90;;;;;;5052591;28;20190;-73
2022/02/19 09:20:42;;;;;;;8.47;2.53;;;6.70;99.90;;;;;;5051869;28;20244;-73
2022/02/19 09:23:08;;;;;;;13.23;3.00;;;6.90;99.90;;;;;;5052177;28;20201;-72
2022/02/19 09:25:34;;;;;;;4.90;2.20;;;6.80;99.90;;;;;;5052961;28;20259;-73
2022/02/19 09:28:00;;;;;;;6.07;2.23;;;6.90;99.90;;;;;;5051682;28;20285;-73
2022/02/19 09:30:26;;;;;;;4.43;2.40;;;7.00;99.90;;;;;;5034673;28;20217;-73
2022/02/19 09:32:51;;;;;;;10.27;2.13;;;7.10;99.90;;;;;;5051011;28;20480;-73
2022/02/19 09:35:17;;;;;;;12.67;2.33;;;7.10;99.90;;;;;;5052234;28;20562;-71
2022/02/19 09:37:43;;;;;;;11.07;2.67;;;7.10;99.90;;;;;;5051873;28;20238;-71
2022/02/19 09:40:10;;;;;;;7.63;2.03;;;7.10;99.90;;;;;;5050801;28;20243;-72
2022/02/19 09:42:37;;;;;;;6.20;1.90;;;7.10;99.90;;;;;;5051153;28;20217;-72
2022/02/19 09:45:04;;;;;;;6.03;2.00;;;7.20;99.90;;;;;;5053295;28;20448;-72
2022/02/19 09:47:30;;;;;;;6.00;2.50;;;7.20;99.90;;;;;;5053302;28;20487;-72
2022/02/19 09:49:57;;;;;;;10.53;2.70;;;7.00;99.40;;;;;;5052896;28;20512;-72
2022/02/19 09:52:23;;;;;;;9.03;2.43;;;7.00;99.90;;;;;;5051753;28;20479;-72
2022/02/19 09:54:49;;;;;;;6.93;2.50;;;7.10;99.90;;;;;;5034991;28;20436;-72
2022/02/19 09:57:15;;;;;;;7.20;1.97;;;7.10;99.40;;;;;;5051893;28;20484;-73
2022/02/19 09:59:41;;;;;;;7.43;2.27;;;7.30;99.90;;;;;;5051803;28;20463;-74
2022/02/19 10:02:07;;;;;;;5.17;1.87;;;7.40;99.90;;;;;;5049494;28;20222;-73
2022/02/19 10:04:33;;;;;;;7.87;1.70;;;7.50;99.90;;;;;;5051510;28;20207;-75
2022/02/19 10:07:16;;;;;;;6.43;1.47;;;7.60;99.90;;;;;;5049664;28;20492;-72
2022/02/19 10:09:43;;;;;;;12.80;2.70;;;7.60;99.90;;;;;;5048531;28;20490;-70
2022/02/19 10:12:11;;;;;;;4.13;2.17;;;7.80;99.90;;;;;;5050470;28;20406;-73
2022/02/19 10:14:39;;;;;;;2.53;2.00;;;7.80;99.30;;;;;;5067307;22;20990;-67
2022/02/19 10:17:13;;;;;;;6.07;2.30;;;7.90;99.90;;;;;;5049594;28;20460;-67
2022/02/19 10:19:49;;;;;;;3.43;1.60;;;8.20;99.70;;;;;;5052666;28;20915;-67
2022/02/19 10:22:20;;;;;;;5.13;2.00;;;8.20;97.60;;;;;;5052408;28;20401;-67
2022/02/19 10:24:47;;;;;;;9.50;2.20;;;8.10;96.60;;;;;;5036960;28;20484;-67
2022/02/19 10:27:13;;;;;;;5.00;1.90;;;7.80;96.70;;;;;;5014869;28;20829;-69
2022/02/19 10:29:49;;;;;;;5.80;1.63;;;7.70;96.90;;;;;;5015085;28;20442;-67
2022/02/19 10:32:15;;;;;;;7.00;1.70;;;7.50;97.10;;;;;;5014564;28;20502;-69
2022/02/19 10:35:01;;;;;;;4.67;2.13;;;7.60;97.30;;;;;;5015580;28;20444;-67
2022/02/19 10:37:28;;;;;;;7.87;2.03;;;7.60;96.70;;;;;;5014796;28;20935;-66
2022/02/19 10:39:56;;;;;;;10.10;1.90;;;7.60;96.80;;;;;;5034424;28;20433;-68
2022/02/19 10:42:32;;;;;;;6.57;2.00;;;7.80;97.10;;;;;;5039148;28;20440;-68
2022/02/19 10:44:58;;;;;;;5.60;2.00;;;7.90;96.70;;;;;;5038047;28;20496;-68
2022/02/19 10:47:26;;;;;;;13.43;2.57;;;7.90;96.50;;;;;;5037072;28;20994;-69
2022/02/19 10:50:02;;;;;;;7.47;2.50;;;7.90;95.90;;;;;;5020417;28;20172;-69
2022/02/19 10:52:28;;;;;;;4.87;1.73;;;8.00;95.70;;;;;;5016038;28;20418;-68
2022/02/19 10:55:00;;;;;;;5.20;2.03;;;8.10;95.40;;;;;;5015510;28;20447;-68
2022/02/19 10:57:26;;;;;;;10.33;2.57;;;8.10;95.30;;;;;;5014487;28;20192;-69
2022/02/19 10:59:52;;;;;;;6.60;1.93;;;8.00;94.90;;;;;;5016113;28;21017;-68
2022/02/19 11:02:20;;;;;;;6.17;2.23;;;8.00;94.90;;;;;;5014539;28;20415;-68
2022/02/19 11:04:46;;;;;;;4.40;1.93;;;8.00;95.10;;;;;;5014206;28;20191;-67
2022/02/19 11:07:12;;;;;;;4.90;2.37;;;7.90;95.10;;;;;;5014715;28;20475;-69
2022/02/19 11:09:38;;;;;;;6.83;2.07;;;7.90;95.60;;;;;;5015212;28;20787;-69
2022/02/19 11:12:04;;;;;;;4.20;1.60;;;7.80;95.30;;;;;;5013605;28;20490;-67
2022/02/19 11:14:30;;;;;;;4.67;2.00;;;7.70;95.30;;;;;;5014181;28;20511;-68
2022/02/19 11:16:57;;;;;;;9.63;2.20;;;7.60;95.10;;;;;;5013538;28;20498;-69
2022/02/19 11:19:23;;;;;;;4.20;2.10;;;7.50;95.20;;;;;;5021310;28;20443;-69
2022/02/19 11:21:48;;;;;;;10.63;2.40;;;7.60;95.20;;;;;;5020869;28;20204;-69
2022/02/19 11:24:15;;;;;;;9.83;2.30;;;7.70;95.10;;;;;;5033184;28;20687;-69
2022/02/19 11:26:42;;;;;;;2.90;1.73;;;7.80;94.70;;;;;;5015820;28;20246;-68
2022/02/19 11:29:14;;;;;;;4.47;1.60;;;7.80;94.70;;;;;;5032328;28;20413;-68
2022/02/19 11:31:42;;;;;;;5.87;1.80;;;7.90;95.10;;;;;;5022494;28;20517;-68
2022/02/19 11:34:09;;;;;;;3.37;1.57;;;8.10;94.90;;;;;;5012722;28;20435;-68
2022/02/19 11:36:34;;;;;;;2.87;1.80;;;7.90;94.70;;;;;;5013242;28;20935;-69
2022/02/19 11:39:03;;;;;;;2.77;1.30;;;7.90;94.40;;;;;;5012586;28;20447;-68
2022/02/19 11:41:36;;;;;;;3.57;1.63;;;8.00;94.60;;;;;;5014180;28;20541;-69
2022/02/19 11:44:14;;;;;;;6.63;1.93;;;8.20;94.50;;;;;;5011805;28;20430;-69
2022/02/19 11:46:39;;;;;;;6.13;2.70;;;8.30;94.20;;;;;;5012659;28;20436;-68
2022/02/19 11:49:26;;;;;;;4.33;2.17;;;8.40;94.20;;;;;;5003091;28;20445;-67
2022/02/19 11:52:07;;;;;;;4.67;1.70;;;8.40;94.00;;;;;;5022524;28;20666;-67
2022/02/19 11:54:33;;;;;;;2.10;1.30;;;8.40;93.30;;;;;;5021780;28;20539;-67
2022/02/19 11:57:26;;;;;;;5.73;1.80;;;8.40;92.50;;;;;;5023080;28;20470;-68
2022/02/19 11:59:53;;;;;;;2.30;1.57;;;8.40;92.20;;;;;;5026020;28;20433;-67
2022/02/19 12:02:23;;;;;;;6.00;1.57;;;8.40;92.20;;;;;;5033165;28;20418;-68
2022/02/19 12:05:23;;;;;;;4.13;1.50;;;8.60;92.80;;;;;;5031820;28;20440;-67
2022/02/19 12:08:02;;;;;;;5.87;1.80;;;8.50;92.90;;;;;;5032993;28;20405;-67
2022/02/19 12:10:30;;;;;;;3.03;1.63;;;8.50;92.30;;;;;;5033069;28;20929;-66
2022/02/19 12:13:09;;;;;;;3.90;1.60;;;8.40;91.90;;;;;;5031755;28;20422;-68
2022/02/19 12:15:39;;;;;;;4.43;1.93;;;8.40;91.90;;;;;;5031695;28;20986;-70
2022/02/19 12:18:09;;;;;;;5.87;1.77;;;8.50;92.20;;;;;;5032766;28;20457;-68
2022/02/19 12:20:36;;;;;;;4.67;1.50;;;8.50;92.50;;;;;;5032484;28;20419;-67
2022/02/19 12:23:05;;;;;;;2.70;1.40;;;8.50;92.60;;;;;;5032326;28;20446;-67
2022/02/19 12:26:01;;;;;;;8.13;2.47;;;8.40;93.20;;;;;;5018517;28;20428;-67
2022/02/19 12:28:27;;;;;;;3.10;2.00;;;8.30;93.40;;;;;;5032547;28;20541;-67
2022/02/19 12:31:23;;;;;;;4.57;3.23;;;8.40;93.40;;;;;;5032057;28;20852;-68
2022/02/19 12:33:52;;;;;;;6.13;2.67;;;8.40;92.80;;;;;;5031478;28;20208;-68
2022/02/19 12:36:18;;;;;;;5.03;1.40;;;8.40;92.00;;;;;;5022334;28;20454;-68
2022/02/19 12:38:49;;;;;;;4.07;1.50;;;8.30;91.90;;;;;;5022250;28;20489;-68
2022/02/19 12:41:15;;;;;;;4.13;2.20;;;8.40;91.90;;;;;;5015984;28;20546;-67
2022/02/19 12:43:57;;;;;;;3.57;1.37;;;8.40;91.90;;;;;;5031869;28;20483;-70
2022/02/19 12:46:23;;;;;;;3.87;1.87;;;8.40;91.50;;;;;;5032318;28;20423;-68
2022/02/19 12:48:48;;;;;;;3.43;1.60;;;8.40;91.70;;;;;;5018160;28;20441;-68
2022/02/19 12:51:14;;;;;;;24.47;12.93;;;8.20;91.50;;;;;;5030486;28;20192;-67
2022/02/19 12:53:40;;;;;;;4.90;3.00;;;8.20;91.90;;;;;;5031698;28;20199;-69
2022/02/19 12:56:05;;;;;;;4.70;1.90;;;8.10;92.30;;;;;;5032077;28;20206;-69
2022/02/19 12:58:31;;;;;;;5.83;2.23;;;8.20;92.60;;;;;;5032106;28;20431;-69
2022/02/19 13:00:57;;;;;;;2.03;1.63;;;8.20;92.90;;;;;;5022433;28;20195;-69
2022/02/19 13:03:22;;;;;;;5.37;1.43;;;8.30;93.20;;;;;;5012822;28;20226;-68
2022/02/19 13:05:55;;;;;;;4.17;1.70;;;8.30;93.00;;;;;;5031803;28;20183;-68